sensor_id;sensor_type;location;lat;lon;timestamp;P1;P2;P0
55754;PMS5003;41674;52.290;-1.474;2023-09-19T00:01:35;3;2;
55754;PMS5003;41674;52.290;-1.474;2023-09-19T00:04:05;1;1;
55754;PMS5003;41674;52.290;-1.474;2023-09-19T00:06:35;0;0;
55754;PMS5003;41674;52.290;-1.474;2023-09-19T00:09:04;0;0;
55754;PMS5003;41674;52.290;-1.474;2023-09-19T00:11:34;1;1;
55754;PMS5003;41674;52.290;-1.474;2023-09-19T00:14:04;1;1;
55754;PMS5003;41674;52.290;-1.474;2023-09-19T00:16:33;3;1;
55754;PMS5003;41674;52.290;-1.474;2023-09-19T00:19:03;1;1;
55754;PMS5003;41674;52.290;-1.474;2023-09-19T00:21:32;2;0;
55754;PMS5003;41674;52.290;-1.474;2023-09-19T00:24:02;2;1;
55754;PMS5003;41674;52.290;-1.474;2023-09-19T00:26:31;3;2;
55754;PMS5003;41674;52.290;-1.474;2023-09-19T00:29:01;2;2;
55754;PMS5003;41674;52.290;-1.474;2023-09-19T00:31:30;2;2;
55754;PMS5003;41674;52.290;-1.474;2023-09-19T00:34:00;5;4;
55754;PMS5003;41674;52.290;-1.474;2023-09-19T00:36:30;5;2;
55754;PMS5003;41674;52.290;-1.474;2023-09-19T00:38:59;2;1;
55754;PMS5003;41674;52.290;-1.474;2023-09-19T00:41:29;2;1;
55754;PMS5003;41674;52.290;-1.474;2023-09-19T00:43:58;2;1;
55754;PMS5003;41674;52.290;-1.474;2023-09-19T00:46:28;1;1;
55754;PMS5003;41674;52.290;-1.474;2023-09-19T00:48:58;1;1;
55754;PMS5003;41674;52.290;-1.474;2023-09-19T00:51:27;2;2;
55754;PMS5003;41674;52.290;-1.474;2023-09-19T00:53:57;1;1;
55754;PMS5003;41674;52.290;-1.474;2023-09-19T00:56:26;3;1;
55754;PMS5003;41674;52.290;-1.474;2023-09-19T00:58:56;3;3;
55754;PMS5003;41674;52.290;-1.474;2023-09-19T01:01:25;2;2;
55754;PMS5003;41674;52.290;-1.474;2023-09-19T01:03:55;6;4;
55754;PMS5003;41674;52.290;-1.474;2023-09-19T01:06:25;2;1;
55754;PMS5003;41674;52.290;-1.474;2023-09-19T01:08:54;2;2;
55754;PMS5003;41674;52.290;-1.474;2023-09-19T01:11:25;2;2;
55754;PMS5003;41674;52.290;-1.474;2023-09-19T01:13:56;5;1;
55754;PMS5003;41674;52.290;-1.474;2023-09-19T01:16:28;1;1;
55754;PMS5003;41674;52.290;-1.474;2023-09-19T01:18:55;1;0;
55754;PMS5003;41674;52.290;-1.474;2023-09-19T01:21:25;2;2;
55754;PMS5003;41674;52.290;-1.474;2023-09-19T01:24:07;3;2;
55754;PMS5003;41674;52.290;-1.474;2023-09-19T01:26:27;6;2;
55754;PMS5003;41674;52.290;-1.474;2023-09-19T01:28:53;1;1;
55754;PMS5003;41674;52.290;-1.474;2023-09-19T01:31:21;1;1;
55754;PMS5003;41674;52.290;-1.474;2023-09-19T01:33:54;4;2;
55754;PMS5003;41674;52.290;-1.474;2023-09-19T01:36:20;3;2;
55754;PMS5003;41674;52.290;-1.474;2023-09-19T01:38:49;3;3;
55754;PMS5003;41674;52.290;-1.474;2023-09-19T01:41:21;1;1;
55754;PMS5003;41674;52.290;-1.474;2023-09-19T01:43:49;4;2;
55754;PMS5003;41674;52.290;-1.474;2023-09-19T01:46:19;2;1;
55754;PMS5003;41674;52.290;-1.474;2023-09-19T01:48:49;2;2;
55754;PMS5003;41674;52.290;-1.474;2023-09-19T01:51:19;1;1;
55754;PMS5003;41674;52.290;-1.474;2023-09-19T01:53:50;5;4;
55754;PMS5003;41674;52.290;-1.474;2023-09-19T01:56:20;1;1;
55754;PMS5003;41674;52.290;-1.474;2023-09-19T01:58:47;3;2;
55754;PMS5003;41674;52.290;-1.474;2023-09-19T02:01:16;3;3;
55754;PMS5003;41674;52.290;-1.474;2023-09-19T02:03:45;2;2;
55754;PMS5003;41674;52.290;-1.474;2023-09-19T02:06:15;3;2;
55754;PMS5003;41674;52.290;-1.474;2023-09-19T02:08:45;2;1;
55754;PMS5003;41674;52.290;-1.474;2023-09-19T02:11:14;4;3;
55754;PMS5003;41674;52.290;-1.474;2023-09-19T02:13:44;3;2;
55754;PMS5003;41674;52.290;-1.474;2023-09-19T02:16:14;2;2;
55754;PMS5003;41674;52.290;-1.474;2023-09-19T02:18:43;2;2;
55754;PMS5003;41674;52.290;-1.474;2023-09-19T02:21:12;2;1;
55754;PMS5003;41674;52.290;-1.474;2023-09-19T02:23:42;3;3;
55754;PMS5003;41674;52.290;-1.474;2023-09-19T02:26:12;1;0;
55754;PMS5003;41674;52.290;-1.474;2023-09-19T02:28:41;3;3;
55754;PMS5003;41674;52.290;-1.474;2023-09-19T02:31:11;4;4;
55754;PMS5003;41674;52.290;-1.474;2023-09-19T02:33:40;5;3;
55754;PMS5003;41674;52.290;-1.474;2023-09-19T02:36:10;1;0;
55754;PMS5003;41674;52.290;-1.474;2023-09-19T02:38:40;2;2;
55754;PMS5003;41674;52.290;-1.474;2023-09-19T02:41:09;4;2;
55754;PMS5003;41674;52.290;-1.474;2023-09-19T02:43:39;2;2;
55754;PMS5003;41674;52.290;-1.474;2023-09-19T02:46:08;3;2;
55754;PMS5003;41674;52.290;-1.474;2023-09-19T02:48:38;2;2;
55754;PMS5003;41674;52.290;-1.474;2023-09-19T02:51:07;6;4;
55754;PMS5003;41674;52.290;-1.474;2023-09-19T02:53:37;4;4;
55754;PMS5003;41674;52.290;-1.474;2023-09-19T02:56:07;2;2;
55754;PMS5003;41674;52.290;-1.474;2023-09-19T02:58:36;2;2;
55754;PMS5003;41674;52.290;-1.474;2023-09-19T03:01:09;3;2;
55754;PMS5003;41674;52.290;-1.474;2023-09-19T03:03:35;6;3;
55754;PMS5003;41674;52.290;-1.474;2023-09-19T03:06:05;6;2;
55754;PMS5003;41674;52.290;-1.474;2023-09-19T03:08:34;2;2;
55754;PMS5003;41674;52.290;-1.474;2023-09-19T03:11:04;2;2;
55754;PMS5003;41674;52.290;-1.474;2023-09-19T03:13:33;2;2;
55754;PMS5003;41674;52.290;-1.474;2023-09-19T03:16:03;8;3;
55754;PMS5003;41674;52.290;-1.474;2023-09-19T03:18:34;2;2;
55754;PMS5003;41674;52.290;-1.474;2023-09-19T03:21:02;3;3;
55754;PMS5003;41674;52.290;-1.474;2023-09-19T03:23:32;5;3;
55754;PMS5003;41674;52.290;-1.474;2023-09-19T03:26:01;2;2;
55754;PMS5003;41674;52.290;-1.474;2023-09-19T03:28:32;4;2;
55754;PMS5003;41674;52.290;-1.474;2023-09-19T03:31:01;3;3;
55754;PMS5003;41674;52.290;-1.474;2023-09-19T03:33:30;2;2;
55754;PMS5003;41674;52.290;-1.474;2023-09-19T03:36:00;4;3;
55754;PMS5003;41674;52.290;-1.474;2023-09-19T03:38:30;2;1;
55754;PMS5003;41674;52.290;-1.474;2023-09-19T03:40:59;3;2;
55754;PMS5003;41674;52.290;-1.474;2023-09-19T03:43:28;2;1;
55754;PMS5003;41674;52.290;-1.474;2023-09-19T03:46:01;2;2;
55754;PMS5003;41674;52.290;-1.474;2023-09-19T03:48:28;2;2;
55754;PMS5003;41674;52.290;-1.474;2023-09-19T03:50:57;1;1;
55754;PMS5003;41674;52.290;-1.474;2023-09-19T03:53:27;8;4;
55754;PMS5003;41674;52.290;-1.474;2023-09-19T03:55:56;4;2;
55754;PMS5003;41674;52.290;-1.474;2023-09-19T03:58:26;4;3;
55754;PMS5003;41674;52.290;-1.474;2023-09-19T04:00:56;2;2;
55754;PMS5003;41674;52.290;-1.474;2023-09-19T04:03:25;4;3;
55754;PMS5003;41674;52.290;-1.474;2023-09-19T04:05:55;3;3;
55754;PMS5003;41674;52.290;-1.474;2023-09-19T04:10:54;4;4;
55754;PMS5003;41674;52.290;-1.474;2023-09-19T04:13:23;3;2;
55754;PMS5003;41674;52.290;-1.474;2023-09-19T04:15:53;2;2;
55754;PMS5003;41674;52.290;-1.474;2023-09-19T04:18:22;2;2;
55754;PMS5003;41674;52.290;-1.474;2023-09-19T04:20:52;5;4;
55754;PMS5003;41674;52.290;-1.474;2023-09-19T04:23:21;3;1;
55754;PMS5003;41674;52.290;-1.474;2023-09-19T04:25:51;4;3;
55754;PMS5003;41674;52.290;-1.474;2023-09-19T04:28:20;3;2;
55754;PMS5003;41674;52.290;-1.474;2023-09-19T04:30:50;5;4;
55754;PMS5003;41674;52.290;-1.474;2023-09-19T04:33:20;5;3;
55754;PMS5003;41674;52.290;-1.474;2023-09-19T04:35:49;3;2;
55754;PMS5003;41674;52.290;-1.474;2023-09-19T04:38:19;5;3;
55754;PMS5003;41674;52.290;-1.474;2023-09-19T04:40:48;7;4;
55754;PMS5003;41674;52.290;-1.474;2023-09-19T04:43:23;4;2;
55754;PMS5003;41674;52.290;-1.474;2023-09-19T04:45:48;3;3;
55754;PMS5003;41674;52.290;-1.474;2023-09-19T04:48:17;2;2;
55754;PMS5003;41674;52.290;-1.474;2023-09-19T04:50:48;3;2;
55754;PMS5003;41674;52.290;-1.474;2023-09-19T04:53:16;3;2;
55754;PMS5003;41674;52.290;-1.474;2023-09-19T04:55:49;3;1;
55754;PMS5003;41674;52.290;-1.474;2023-09-19T04:58:15;1;1;
55754;PMS5003;41674;52.290;-1.474;2023-09-19T05:00:45;5;3;
55754;PMS5003;41674;52.290;-1.474;2023-09-19T05:03:15;1;1;
55754;PMS5003;41674;52.290;-1.474;2023-09-19T05:05:44;1;0;
55754;PMS5003;41674;52.290;-1.474;2023-09-19T05:08:14;7;2;
55754;PMS5003;41674;52.290;-1.474;2023-09-19T05:10:43;3;1;
55754;PMS5003;41674;52.290;-1.474;2023-09-19T05:13:13;5;2;
55754;PMS5003;41674;52.290;-1.474;2023-09-19T05:15:42;2;2;
55754;PMS5003;41674;52.290;-1.474;2023-09-19T05:18:12;3;2;
55754;PMS5003;41674;52.290;-1.474;2023-09-19T05:20:42;3;2;
55754;PMS5003;41674;52.290;-1.474;2023-09-19T05:23:11;3;0;
55754;PMS5003;41674;52.290;-1.474;2023-09-19T05:25:41;4;1;
55754;PMS5003;41674;52.290;-1.474;2023-09-19T05:28:10;5;1;
55754;PMS5003;41674;52.290;-1.474;2023-09-19T05:30:40;1;1;
55754;PMS5003;41674;52.290;-1.474;2023-09-19T05:33:09;2;2;
55754;PMS5003;41674;52.290;-1.474;2023-09-19T05:35:39;1;1;
55754;PMS5003;41674;52.290;-1.474;2023-09-19T05:38:09;2;2;
55754;PMS5003;41674;52.290;-1.474;2023-09-19T05:40:39;2;2;
55754;PMS5003;41674;52.290;-1.474;2023-09-19T05:43:08;5;4;
55754;PMS5003;41674;52.290;-1.474;2023-09-19T05:45:37;3;2;
55754;PMS5003;41674;52.290;-1.474;2023-09-19T05:48:07;3;3;
55754;PMS5003;41674;52.290;-1.474;2023-09-19T05:50:37;0;0;
55754;PMS5003;41674;52.290;-1.474;2023-09-19T05:53:06;2;2;
55754;PMS5003;41674;52.290;-1.474;2023-09-19T05:55:36;4;2;
55754;PMS5003;41674;52.290;-1.474;2023-09-19T05:58:05;4;2;
55754;PMS5003;41674;52.290;-1.474;2023-09-19T06:00:35;3;3;
55754;PMS5003;41674;52.290;-1.474;2023-09-19T06:03:04;2;1;
55754;PMS5003;41674;52.290;-1.474;2023-09-19T06:05:34;2;1;
55754;PMS5003;41674;52.290;-1.474;2023-09-19T06:08:04;1;1;
55754;PMS5003;41674;52.290;-1.474;2023-09-19T06:10:33;2;2;
55754;PMS5003;41674;52.290;-1.474;2023-09-19T06:13:03;2;2;
55754;PMS5003;41674;52.290;-1.474;2023-09-19T06:15:32;2;2;
55754;PMS5003;41674;52.290;-1.474;2023-09-19T06:18:02;1;1;
55754;PMS5003;41674;52.290;-1.474;2023-09-19T06:20:31;3;1;
55754;PMS5003;41674;52.290;-1.474;2023-09-19T06:23:02;0;0;
55754;PMS5003;41674;52.290;-1.474;2023-09-19T06:25:30;3;2;
55754;PMS5003;41674;52.290;-1.474;2023-09-19T06:28:00;2;1;
55754;PMS5003;41674;52.290;-1.474;2023-09-19T06:30:30;3;3;
55754;PMS5003;41674;52.290;-1.474;2023-09-19T06:32:59;4;1;
55754;PMS5003;41674;52.290;-1.474;2023-09-19T06:35:29;3;2;
55754;PMS5003;41674;52.290;-1.474;2023-09-19T06:37:58;3;2;
55754;PMS5003;41674;52.290;-1.474;2023-09-19T06:40:28;2;2;
55754;PMS5003;41674;52.290;-1.474;2023-09-19T06:42:58;1;1;
55754;PMS5003;41674;52.290;-1.474;2023-09-19T06:45:27;3;3;
55754;PMS5003;41674;52.290;-1.474;2023-09-19T06:47:56;6;3;
55754;PMS5003;41674;52.290;-1.474;2023-09-19T06:50:26;3;3;
55754;PMS5003;41674;52.290;-1.474;2023-09-19T06:52:56;4;4;
55754;PMS5003;41674;52.290;-1.474;2023-09-19T06:55:25;1;1;
55754;PMS5003;41674;52.290;-1.474;2023-09-19T06:57:55;2;2;
55754;PMS5003;41674;52.290;-1.474;2023-09-19T07:00:24;2;2;
55754;PMS5003;41674;52.290;-1.474;2023-09-19T07:02:55;3;2;
55754;PMS5003;41674;52.290;-1.474;2023-09-19T07:05:24;4;2;
55754;PMS5003;41674;52.290;-1.474;2023-09-19T07:07:53;2;2;
55754;PMS5003;41674;52.290;-1.474;2023-09-19T07:10:23;6;3;
55754;PMS5003;41674;52.290;-1.474;2023-09-19T07:12:54;6;3;
55754;PMS5003;41674;52.290;-1.474;2023-09-19T07:17:52;2;2;
55754;PMS5003;41674;52.290;-1.474;2023-09-19T07:22:51;3;3;
55754;PMS5003;41674;52.290;-1.474;2023-09-19T07:25:20;4;4;
55754;PMS5003;41674;52.290;-1.474;2023-09-19T07:27:50;6;4;
55754;PMS5003;41674;52.290;-1.474;2023-09-19T07:30:19;5;2;
55754;PMS5003;41674;52.290;-1.474;2023-09-19T07:32:49;4;3;
55754;PMS5003;41674;52.290;-1.474;2023-09-19T07:35:19;3;3;
55754;PMS5003;41674;52.290;-1.474;2023-09-19T07:37:48;5;4;
55754;PMS5003;41674;52.290;-1.474;2023-09-19T07:40:18;2;2;
55754;PMS5003;41674;52.290;-1.474;2023-09-19T07:42:47;5;3;
55754;PMS5003;41674;52.290;-1.474;2023-09-19T07:45:17;3;3;
55754;PMS5003;41674;52.290;-1.474;2023-09-19T07:47:46;4;3;
55754;PMS5003;41674;52.290;-1.474;2023-09-19T07:50:16;6;6;
55754;PMS5003;41674;52.290;-1.474;2023-09-19T07:52:45;3;2;
55754;PMS5003;41674;52.290;-1.474;2023-09-19T07:55:14;2;2;
55754;PMS5003;41674;52.290;-1.474;2023-09-19T07:57:44;4;4;
55754;PMS5003;41674;52.290;-1.474;2023-09-19T08:00:14;5;3;
55754;PMS5003;41674;52.290;-1.474;2023-09-19T08:02:43;4;3;
55754;PMS5003;41674;52.290;-1.474;2023-09-19T08:05:13;3;3;
55754;PMS5003;41674;52.290;-1.474;2023-09-19T08:07:42;6;5;
55754;PMS5003;41674;52.290;-1.474;2023-09-19T08:10:12;3;3;
55754;PMS5003;41674;52.290;-1.474;2023-09-19T08:12:41;4;3;
55754;PMS5003;41674;52.290;-1.474;2023-09-19T08:15:11;3;3;
55754;PMS5003;41674;52.290;-1.474;2023-09-19T08:17:40;3;2;
55754;PMS5003;41674;52.290;-1.474;2023-09-19T08:20:10;3;1;
55754;PMS5003;41674;52.290;-1.474;2023-09-19T08:22:39;5;3;
55754;PMS5003;41674;52.290;-1.474;2023-09-19T08:25:09;5;3;
55754;PMS5003;41674;52.290;-1.474;2023-09-19T08:27:38;4;3;
55754;PMS5003;41674;52.290;-1.474;2023-09-19T08:30:08;4;3;
55754;PMS5003;41674;52.290;-1.474;2023-09-19T08:32:37;4;3;
55754;PMS5003;41674;52.290;-1.474;2023-09-19T08:35:07;2;2;
55754;PMS5003;41674;52.290;-1.474;2023-09-19T08:37:36;4;2;
55754;PMS5003;41674;52.290;-1.474;2023-09-19T08:40:06;4;4;
55754;PMS5003;41674;52.290;-1.474;2023-09-19T08:45:05;5;4;
55754;PMS5003;41674;52.290;-1.474;2023-09-19T08:47:37;5;4;
55754;PMS5003;41674;52.290;-1.474;2023-09-19T08:50:09;4;2;
55754;PMS5003;41674;52.290;-1.474;2023-09-19T08:52:37;6;4;
55754;PMS5003;41674;52.290;-1.474;2023-09-19T08:55:04;4;3;
55754;PMS5003;41674;52.290;-1.474;2023-09-19T08:57:33;3;3;
55754;PMS5003;41674;52.290;-1.474;2023-09-19T09:00:03;0;0;
55754;PMS5003;41674;52.290;-1.474;2023-09-19T09:02:32;4;4;
55754;PMS5003;41674;52.290;-1.474;2023-09-19T09:05:01;5;4;
55754;PMS5003;41674;52.290;-1.474;2023-09-19T09:07:32;5;3;
55754;PMS5003;41674;52.290;-1.474;2023-09-19T09:10:02;1;1;
55754;PMS5003;41674;52.290;-1.474;2023-09-19T09:12:30;7;3;
55754;PMS5003;41674;52.290;-1.474;2023-09-19T09:15:00;7;3;
55754;PMS5003;41674;52.290;-1.474;2023-09-19T09:17:29;3;3;
55754;PMS5003;41674;52.290;-1.474;2023-09-19T09:19:59;5;4;
55754;PMS5003;41674;52.290;-1.474;2023-09-19T09:22:28;4;2;
55754;PMS5003;41674;52.290;-1.474;2023-09-19T09:24:58;3;3;
55754;PMS5003;41674;52.290;-1.474;2023-09-19T09:27:27;5;4;
55754;PMS5003;41674;52.290;-1.474;2023-09-19T09:29:56;6;4;
55754;PMS5003;41674;52.290;-1.474;2023-09-19T09:32:26;2;2;
55754;PMS5003;41674;52.290;-1.474;2023-09-19T09:34:56;3;3;
55754;PMS5003;41674;52.290;-1.474;2023-09-19T09:37:25;2;2;
55754;PMS5003;41674;52.290;-1.474;2023-09-19T09:39:55;5;2;
55754;PMS5003;41674;52.290;-1.474;2023-09-19T09:42:29;6;5;
55754;PMS5003;41674;52.290;-1.474;2023-09-19T09:44:57;4;4;
55754;PMS5003;41674;52.290;-1.474;2023-09-19T09:49:53;5;3;
55754;PMS5003;41674;52.290;-1.474;2023-09-19T09:52:23;4;3;
55754;PMS5003;41674;52.290;-1.474;2023-09-19T09:54:58;2;2;
55754;PMS5003;41674;52.290;-1.474;2023-09-19T09:57:21;2;2;
55754;PMS5003;41674;52.290;-1.474;2023-09-19T09:59:51;1;1;
55754;PMS5003;41674;52.290;-1.474;2023-09-19T10:02:21;3;2;
55754;PMS5003;41674;52.290;-1.474;2023-09-19T10:04:51;2;2;
55754;PMS5003;41674;52.290;-1.474;2023-09-19T10:07:24;2;2;
55754;PMS5003;41674;52.290;-1.474;2023-09-19T10:09:49;2;2;
55754;PMS5003;41674;52.290;-1.474;2023-09-19T10:12:19;2;2;
55754;PMS5003;41674;52.290;-1.474;2023-09-19T10:14:48;2;2;
55754;PMS5003;41674;52.290;-1.474;2023-09-19T10:17:18;4;1;
55754;PMS5003;41674;52.290;-1.474;2023-09-19T10:19:51;3;2;
55754;PMS5003;41674;52.290;-1.474;2023-09-19T10:22:17;0;0;
55754;PMS5003;41674;52.290;-1.474;2023-09-19T10:24:46;3;2;
55754;PMS5003;41674;52.290;-1.474;2023-09-19T10:27:16;2;2;
55754;PMS5003;41674;52.290;-1.474;2023-09-19T10:29:45;4;2;
55754;PMS5003;41674;52.290;-1.474;2023-09-19T10:32:15;0;0;
55754;PMS5003;41674;52.290;-1.474;2023-09-19T10:34:45;5;1;
55754;PMS5003;41674;52.290;-1.474;2023-09-19T10:37:14;1;1;
55754;PMS5003;41674;52.290;-1.474;2023-09-19T10:39:45;2;2;
55754;PMS5003;41674;52.290;-1.474;2023-09-19T10:42:14;1;1;
55754;PMS5003;41674;52.290;-1.474;2023-09-19T10:44:43;3;2;
55754;PMS5003;41674;52.290;-1.474;2023-09-19T10:47:12;2;1;
55754;PMS5003;41674;52.290;-1.474;2023-09-19T10:49:43;1;1;
55754;PMS5003;41674;52.290;-1.474;2023-09-19T10:52:11;1;1;
55754;PMS5003;41674;52.290;-1.474;2023-09-19T10:54:42;1;1;
55754;PMS5003;41674;52.290;-1.474;2023-09-19T10:57:10;3;2;
55754;PMS5003;41674;52.290;-1.474;2023-09-19T10:59:40;0;0;
55754;PMS5003;41674;52.290;-1.474;2023-09-19T11:02:16;1;1;
55754;PMS5003;41674;52.290;-1.474;2023-09-19T11:04:39;1;1;
55754;PMS5003;41674;52.290;-1.474;2023-09-19T11:07:09;2;2;
55754;PMS5003;41674;52.290;-1.474;2023-09-19T11:09:43;1;1;
55754;PMS5003;41674;52.290;-1.474;2023-09-19T11:12:07;2;2;
55754;PMS5003;41674;52.290;-1.474;2023-09-19T11:14:38;2;0;
55754;PMS5003;41674;52.290;-1.474;2023-09-19T11:22:05;2;1;
55754;PMS5003;41674;52.290;-1.474;2023-09-19T11:24:35;0;0;
55754;PMS5003;41674;52.290;-1.474;2023-09-19T11:27:10;0;0;
55754;PMS5003;41674;52.290;-1.474;2023-09-19T11:29:34;0;0;
55754;PMS5003;41674;52.290;-1.474;2023-09-19T11:32:04;0;0;
55754;PMS5003;41674;52.290;-1.474;2023-09-19T11:34:39;1;0;
55754;PMS5003;41674;52.290;-1.474;2023-09-19T11:37:02;1;1;
55754;PMS5003;41674;52.290;-1.474;2023-09-19T11:39:32;1;1;
55754;PMS5003;41674;52.290;-1.474;2023-09-19T11:42:02;3;1;
55754;PMS5003;41674;52.290;-1.474;2023-09-19T11:44:31;0;0;
55754;PMS5003;41674;52.290;-1.474;2023-09-19T11:47:00;0;0;
55754;PMS5003;41674;52.290;-1.474;2023-09-19T11:49:30;1;1;
55754;PMS5003;41674;52.290;-1.474;2023-09-19T11:52:00;2;1;
55754;PMS5003;41674;52.290;-1.474;2023-09-19T11:56:59;1;1;
55754;PMS5003;41674;52.290;-1.474;2023-09-19T11:59:29;0;0;
55754;PMS5003;41674;52.290;-1.474;2023-09-19T12:01:58;1;0;
55754;PMS5003;41674;52.290;-1.474;2023-09-19T12:04:33;0;0;
55754;PMS5003;41674;52.290;-1.474;2023-09-19T12:06:56;2;1;
55754;PMS5003;41674;52.290;-1.474;2023-09-19T12:09:26;0;0;
55754;PMS5003;41674;52.290;-1.474;2023-09-19T12:11:55;1;1;
55754;PMS5003;41674;52.290;-1.474;2023-09-19T12:14:25;1;1;
55754;PMS5003;41674;52.290;-1.474;2023-09-19T12:16:55;0;0;
55754;PMS5003;41674;52.290;-1.474;2023-09-19T12:19:24;0;0;
55754;PMS5003;41674;52.290;-1.474;2023-09-19T12:21:55;0;0;
55754;PMS5003;41674;52.290;-1.474;2023-09-19T12:24:23;0;0;
55754;PMS5003;41674;52.290;-1.474;2023-09-19T12:26:53;1;1;
55754;PMS5003;41674;52.290;-1.474;2023-09-19T12:29:22;0;0;
55754;PMS5003;41674;52.290;-1.474;2023-09-19T12:31:52;0;0;
55754;PMS5003;41674;52.290;-1.474;2023-09-19T12:34:22;0;0;
55754;PMS5003;41674;52.290;-1.474;2023-09-19T12:39:23;1;1;
55754;PMS5003;41674;52.290;-1.474;2023-09-19T12:41:50;1;1;
55754;PMS5003;41674;52.290;-1.474;2023-09-19T12:44:19;0;0;
55754;PMS5003;41674;52.290;-1.474;2023-09-19T12:46:48;0;0;
55754;PMS5003;41674;52.290;-1.474;2023-09-19T12:49:18;1;1;
55754;PMS5003;41674;52.290;-1.474;2023-09-19T12:51:48;0;0;
55754;PMS5003;41674;52.290;-1.474;2023-09-19T12:54:17;2;1;
55754;PMS5003;41674;52.290;-1.474;2023-09-19T12:56:47;0;0;
55754;PMS5003;41674;52.290;-1.474;2023-09-19T12:59:16;2;1;
55754;PMS5003;41674;52.290;-1.474;2023-09-19T13:01:45;2;0;
55754;PMS5003;41674;52.290;-1.474;2023-09-19T13:04:16;0;0;
55754;PMS5003;41674;52.290;-1.474;2023-09-19T13:06:45;1;1;
55754;PMS5003;41674;52.290;-1.474;2023-09-19T13:09:14;1;1;
55754;PMS5003;41674;52.290;-1.474;2023-09-19T13:11:44;1;1;
55754;PMS5003;41674;52.290;-1.474;2023-09-19T13:14:15;2;1;
55754;PMS5003;41674;52.290;-1.474;2023-09-19T13:19:12;2;1;
55754;PMS5003;41674;52.290;-1.474;2023-09-19T13:21:42;2;1;
55754;PMS5003;41674;52.290;-1.474;2023-09-19T13:24:18;2;2;
55754;PMS5003;41674;52.290;-1.474;2023-09-19T13:26:41;2;2;
55754;PMS5003;41674;52.290;-1.474;2023-09-19T13:29:10;3;3;
55754;PMS5003;41674;52.290;-1.474;2023-09-19T13:31:40;2;1;
55754;PMS5003;41674;52.290;-1.474;2023-09-19T13:34:09;4;1;
55754;PMS5003;41674;52.290;-1.474;2023-09-19T13:36:39;1;1;
55754;PMS5003;41674;52.290;-1.474;2023-09-19T13:39:08;3;3;
55754;PMS5003;41674;52.290;-1.474;2023-09-19T13:41:38;2;2;
55754;PMS5003;41674;52.290;-1.474;2023-09-19T13:44:07;3;2;
55754;PMS5003;41674;52.290;-1.474;2023-09-19T13:46:37;5;1;
55754;PMS5003;41674;52.290;-1.474;2023-09-19T13:49:06;2;1;
55754;PMS5003;41674;52.290;-1.474;2023-09-19T13:51:36;4;4;
55754;PMS5003;41674;52.290;-1.474;2023-09-19T13:54:05;3;2;
55754;PMS5003;41674;52.290;-1.474;2023-09-19T13:56:35;5;3;
55754;PMS5003;41674;52.290;-1.474;2023-09-19T13:59:04;4;3;
55754;PMS5003;41674;52.290;-1.474;2023-09-19T14:01:34;4;4;
55754;PMS5003;41674;52.290;-1.474;2023-09-19T14:04:03;1;1;
55754;PMS5003;41674;52.290;-1.474;2023-09-19T14:06:33;2;2;
55754;PMS5003;41674;52.290;-1.474;2023-09-19T14:09:02;0;0;
55754;PMS5003;41674;52.290;-1.474;2023-09-19T14:11:32;4;2;
55754;PMS5003;41674;52.290;-1.474;2023-09-19T14:14:01;1;1;
55754;PMS5003;41674;52.290;-1.474;2023-09-19T14:16:31;2;2;
55754;PMS5003;41674;52.290;-1.474;2023-09-19T14:19:00;4;2;
55754;PMS5003;41674;52.290;-1.474;2023-09-19T14:21:30;2;1;
55754;PMS5003;41674;52.290;-1.474;2023-09-19T14:24:00;3;3;
55754;PMS5003;41674;52.290;-1.474;2023-09-19T14:26:29;2;2;
55754;PMS5003;41674;52.290;-1.474;2023-09-19T14:28:58;4;2;
55754;PMS5003;41674;52.290;-1.474;2023-09-19T14:31:28;4;2;
55754;PMS5003;41674;52.290;-1.474;2023-09-19T14:33:57;3;3;
55754;PMS5003;41674;52.290;-1.474;2023-09-19T14:36:27;5;3;
55754;PMS5003;41674;52.290;-1.474;2023-09-19T14:38:56;5;3;
55754;PMS5003;41674;52.290;-1.474;2023-09-19T14:41:26;4;3;
55754;PMS5003;41674;52.290;-1.474;2023-09-19T14:43:55;5;4;
55754;PMS5003;41674;52.290;-1.474;2023-09-19T14:46:25;3;2;
55754;PMS5003;41674;52.290;-1.474;2023-09-19T14:48:55;3;3;
55754;PMS5003;41674;52.290;-1.474;2023-09-19T14:51:24;4;4;
55754;PMS5003;41674;52.290;-1.474;2023-09-19T14:53:54;5;4;
55754;PMS5003;41674;52.290;-1.474;2023-09-19T14:56:23;6;4;
55754;PMS5003;41674;52.290;-1.474;2023-09-19T14:58:53;6;3;
55754;PMS5003;41674;52.290;-1.474;2023-09-19T15:01:22;5;5;
55754;PMS5003;41674;52.290;-1.474;2023-09-19T15:03:52;4;3;
55754;PMS5003;41674;52.290;-1.474;2023-09-19T15:06:21;5;4;
55754;PMS5003;41674;52.290;-1.474;2023-09-19T15:08:50;6;6;
55754;PMS5003;41674;52.290;-1.474;2023-09-19T15:11:20;6;4;
55754;PMS5003;41674;52.290;-1.474;2023-09-19T15:13:51;12;11;
55754;PMS5003;41674;52.290;-1.474;2023-09-19T15:16:18;7;7;
55754;PMS5003;41674;52.290;-1.474;2023-09-19T15:18:48;12;8;
55754;PMS5003;41674;52.290;-1.474;2023-09-19T15:21:17;6;4;
55754;PMS5003;41674;52.290;-1.474;2023-09-19T15:23:47;6;5;
55754;PMS5003;41674;52.290;-1.474;2023-09-19T15:26:16;5;3;
55754;PMS5003;41674;52.290;-1.474;2023-09-19T15:28:46;17;13;
55754;PMS5003;41674;52.290;-1.474;2023-09-19T15:31:15;20;17;
55754;PMS5003;41674;52.290;-1.474;2023-09-19T15:33:44;12;10;
55754;PMS5003;41674;52.290;-1.474;2023-09-19T15:36:14;6;5;
55754;PMS5003;41674;52.290;-1.474;2023-09-19T15:41:13;5;5;
55754;PMS5003;41674;52.290;-1.474;2023-09-19T15:43:42;12;9;
55754;PMS5003;41674;52.290;-1.474;2023-09-19T15:46:11;12;11;
55754;PMS5003;41674;52.290;-1.474;2023-09-19T15:48:41;16;14;
55754;PMS5003;41674;52.290;-1.474;2023-09-19T15:51:11;8;4;
55754;PMS5003;41674;52.290;-1.474;2023-09-19T15:53:41;9;7;
55754;PMS5003;41674;52.290;-1.474;2023-09-19T15:56:10;10;8;
55754;PMS5003;41674;52.290;-1.474;2023-09-19T15:58:40;9;8;
55754;PMS5003;41674;52.290;-1.474;2023-09-19T16:01:09;16;13;
55754;PMS5003;41674;52.290;-1.474;2023-09-19T16:06:08;16;13;
55754;PMS5003;41674;52.290;-1.474;2023-09-19T16:08:39;17;16;
55754;PMS5003;41674;52.290;-1.474;2023-09-19T16:11:08;16;13;
55754;PMS5003;41674;52.290;-1.474;2023-09-19T16:13:36;7;6;
55754;PMS5003;41674;52.290;-1.474;2023-09-19T16:16:05;15;12;
55754;PMS5003;41674;52.290;-1.474;2023-09-19T16:18:35;16;12;
55754;PMS5003;41674;52.290;-1.474;2023-09-19T16:21:05;15;11;
55754;PMS5003;41674;52.290;-1.474;2023-09-19T16:23:34;10;8;
55754;PMS5003;41674;52.290;-1.474;2023-09-19T16:26:04;12;10;
55754;PMS5003;41674;52.290;-1.474;2023-09-19T16:28:33;7;7;
55754;PMS5003;41674;52.290;-1.474;2023-09-19T16:31:02;7;4;
55754;PMS5003;41674;52.290;-1.474;2023-09-19T16:36:01;4;3;
55754;PMS5003;41674;52.290;-1.474;2023-09-19T16:38:31;6;5;
55754;PMS5003;41674;52.290;-1.474;2023-09-19T16:41:00;4;4;
55754;PMS5003;41674;52.290;-1.474;2023-09-19T16:43:30;0;0;
55754;PMS5003;41674;52.290;-1.474;2023-09-19T16:46:00;1;1;
55754;PMS5003;41674;52.290;-1.474;2023-09-19T16:48:29;1;1;
55754;PMS5003;41674;52.290;-1.474;2023-09-19T16:50:59;0;0;
55754;PMS5003;41674;52.290;-1.474;2023-09-19T16:53:28;0;0;
55754;PMS5003;41674;52.290;-1.474;2023-09-19T16:56:01;0;0;
55754;PMS5003;41674;52.290;-1.474;2023-09-19T16:58:27;2;0;
55754;PMS5003;41674;52.290;-1.474;2023-09-19T17:00:56;2;2;
55754;PMS5003;41674;52.290;-1.474;2023-09-19T17:03:26;1;0;
55754;PMS5003;41674;52.290;-1.474;2023-09-19T17:05:57;3;2;
55754;PMS5003;41674;52.290;-1.474;2023-09-19T17:08:25;1;1;
55754;PMS5003;41674;52.290;-1.474;2023-09-19T17:11:00;1;1;
55754;PMS5003;41674;52.290;-1.474;2023-09-19T17:13:24;3;2;
55754;PMS5003;41674;52.290;-1.474;2023-09-19T17:18:23;4;3;
55754;PMS5003;41674;52.290;-1.474;2023-09-19T17:20:52;4;4;
55754;PMS5003;41674;52.290;-1.474;2023-09-19T17:23:22;3;3;